Skip Navigation LinksHome page > Weather > Current weather Skip Navigation Links

Current Weather

Chicago Midway, Chicago

For information only: do not use for flight planning or navigation.
Latest weather
Observation time Sunday, September 20, 2020 7:53 AM CDT
Local time Sunday, September 20, 2020 8:40 AM CDT
Flight conditions Visual Meteorological Conditions
Winds
Wind direction variable
Wind speed 6 mph
Visibility 10 mi.
Sky condition
Ceiling unlimited
Sky clear
Temperature 53°F
Dewpoint 39°F
Altimeter 30.42 in.Hg
Derived measurements
Relative humidity 59%
Density altitude -222 ft.
Sea-level pressure 30.42 in.Hg
Remarks
Automated weather observing station with precipitation discriminator.
METAR KMDW 201253Z VRB05KT 10SM CLR 12/04 A3042 RMK AO2 SLP300 T01170039

Settings

Location code

InnerDrive.Weather 4.0.6770.0 Release CLR 4.0.30319.42000
Copyright ©2018 Inner Drive Technology. All rights reserved. Portions Copyright ©1986-2018 David Braverman.

Find weather

Site navigation


Skip Navigation Links

Place info

Page info

PayPal - The safer, easier way to pay online!

Return home.

Copyright ©2020 Inner Drive Technology. Purveyors of fine, hand-crafted computer software. Page printed 2020-09-20T13:40:02 UTC.